Time;durP1;ratioP1;P1;durP2;ratioP2;P2;SDS_P1;SDS_P2;PMS_P1;PMS_P2;Temp;Humidity;BMP_temperature;BMP_pressure;BME280_temperature;BME280_humidity;BME280_pressure;Samples;Min_cycle;Max_cycle;Signal;HPM_P1;HPM_P2
2021/01/30 00:01:47;;;;;;;0.60;0.35;;;;;;;8.60;73.87;98867.72;6186686;23;20005;-77
2021/01/30 00:04:14;;;;;;;0.38;0.30;;;;;;;8.50;74.04;98855.88;6185588;23;20025;-76
2021/01/30 00:06:50;;;;;;;0.43;0.43;;;;;;;8.55;74.01;98860.44;6187781;23;20001;-76
2021/01/30 00:09:19;;;;;;;4.20;0.50;;;;;;;8.56;74.42;98851.97;6186758;23;20013;-73
2021/01/30 00:11:54;;;;;;;2.20;0.50;;;;;;;8.69;74.58;98855.09;6208314;23;20053;-72
2021/01/30 00:14:22;;;;;;;1.95;0.80;;;;;;;8.64;73.67;98852.44;6184848;23;20076;-72
2021/01/30 00:16:48;;;;;;;4.05;0.60;;;;;;;8.63;74.71;98850.81;6187558;23;20003;-73
2021/01/30 00:19:13;;;;;;;2.03;1.05;;;;;;;8.66;74.30;98845.59;6183399;23;20096;-74
2021/01/30 00:21:39;;;;;;;4.82;2.00;;;;;;;8.58;74.07;98829.09;6184001;23;20028;-73
2021/01/30 00:24:06;;;;;;;2.55;1.00;;;;;;;8.65;74.41;98843.16;6190223;23;20012;-74
2021/01/30 00:26:32;;;;;;;2.72;1.00;;;;;;;8.55;73.67;98819.56;6181885;23;20001;-74
2021/01/30 00:28:58;;;;;;;4.30;1.58;;;;;;;8.62;73.66;98832.84;6194456;23;20020;-73
2021/01/30 00:31:26;;;;;;;3.83;0.73;;;;;;;8.63;74.61;98826.28;6212275;23;20228;-74
2021/01/30 00:33:52;;;;;;;1.20;1.10;;;;;;;8.66;74.04;98812.06;6210347;23;20336;-74
2021/01/30 00:36:17;;;;;;;3.20;1.23;;;;;;;8.60;74.02;98797.72;6218777;23;20023;-74
2021/01/30 00:38:42;;;;;;;4.10;0.68;;;;;;;8.65;73.89;98788.66;6166020;23;20088;-74
2021/01/30 00:41:08;;;;;;;0.90;0.40;;;;;;;8.66;73.68;98784.81;6213986;23;20032;-75
2021/01/30 00:43:34;;;;;;;3.13;0.60;;;;;;;8.61;74.63;98766.63;6191266;23;20020;-73
2021/01/30 00:45:59;;;;;;;0.70;0.50;;;;;;;8.73;74.15;98779.81;6217590;23;20438;-74
2021/01/30 00:48:24;;;;;;;0.30;0.30;;;;;;;8.73;74.14;98768.91;6217570;23;20036;-75
2021/01/30 00:50:50;;;;;;;0.77;0.50;;;;;;;8.77;74.65;98763.69;6218991;23;20001;-76
2021/01/30 00:53:18;;;;;;;0.75;0.50;;;;;;;8.69;74.21;98746.09;6219001;23;20004;-74
2021/01/30 00:55:43;;;;;;;0.82;0.30;;;;;;;8.61;74.45;98733.13;6212170;23;20030;-74
2021/01/30 00:58:09;;;;;;;0.38;0.20;;;;;;;8.70;74.19;98742.25;6191550;23;20032;-74
2021/01/30 01:00:37;;;;;;;4.13;0.80;;;;;;;8.69;73.99;98735.19;6213318;23;20289;-76
2021/01/30 01:03:02;;;;;;;2.28;0.75;;;;;;;8.76;74.84;98741.09;6221898;23;20395;-75
2021/01/30 01:05:28;;;;;;;1.85;0.47;;;;;;;8.75;74.24;98734.00;6219921;23;20004;-73
2021/01/30 01:07:54;;;;;;;0.43;0.22;;;;;;;8.63;74.79;98709.09;6223953;23;20060;-76
2021/01/30 01:10:24;;;;;;;0.10;0.10;;;;;;;8.74;74.11;98716.03;6170483;23;20304;-75
2021/01/30 01:12:50;;;;;;;0.82;0.30;;;;;;;8.72;75.15;98704.63;6193410;23;20009;-75
2021/01/30 01:15:18;;;;;;;0.30;0.20;;;;;;;8.74;75.51;98710.59;6211964;23;19996;-75
2021/01/30 01:17:44;;;;;;;4.78;0.88;;;;;;;8.67;75.06;98688.34;6219208;23;20005;-74
2021/01/30 01:20:18;;;;;;;0.52;0.40;;;;;;;8.76;75.34;98697.50;6195811;23;20415;-74
2021/01/30 01:22:44;;;;;;;0.60;0.35;;;;;;;8.63;75.11;98660.88;6213519;23;20020;-73
2021/01/30 01:25:10;;;;;;;1.02;0.35;;;;;;;8.76;75.06;98672.97;6221724;23;20005;-73
2021/01/30 01:27:38;;;;;;;0.80;0.30;;;;;;;8.71;75.25;98659.41;6216818;23;20004;-73
2021/01/30 01:30:11;;;;;;;1.10;0.35;;;;;;;8.78;74.76;98657.09;6214607;23;20024;-74
2021/01/30 01:32:37;;;;;;;1.02;0.50;;;;;;;8.79;75.60;98658.72;6222691;23;19996;-73
2021/01/30 01:35:04;;;;;;;1.25;0.60;;;;;;;8.74;75.53;98650.63;6191032;23;20005;-74
2021/01/30 01:37:29;;;;;;;0.70;0.50;;;;;;;8.78;75.62;98639.97;6216484;23;20007;-74
2021/01/30 01:39:58;;;;;;;0.28;0.20;;;;;;;8.77;75.81;98633.69;6169444;23;20036;-72
2021/01/30 01:42:25;;;;;;;1.08;0.32;;;;;;;8.78;75.84;98629.84;6197327;23;20007;-74
2021/01/30 01:44:51;;;;;;;1.83;0.50;;;;;;;8.79;75.12;98615.13;6216941;23;20028;-74
2021/01/30 01:47:31;;;;;;;2.47;0.73;;;;;;;8.78;75.66;98613.50;6223002;23;20077;-73
2021/01/30 01:50:08;;;;;;;2.35;1.23;;;;;;;8.77;75.57;98614.59;6224017;23;20024;-75
2021/01/30 01:52:36;;;;;;;1.83;0.55;;;;;;;8.67;75.23;98595.69;6217594;23;20430;-74
2021/01/30 01:55:09;;;;;;;2.97;0.75;;;;;;;8.75;76.11;98597.75;6218673;23;20010;-74
2021/01/30 01:57:40;;;;;;;3.72;0.98;;;;;;;8.73;76.26;98591.78;6221861;23;20047;-74
2021/01/30 02:00:07;;;;;;;2.97;1.15;;;;;;;8.71;76.40;98581.16;6222285;23;20008;-75
2021/01/30 02:02:32;;;;;;;10.38;1.50;;;;;;;8.62;75.76;98554.94;6221437;23;20366;-74
2021/01/30 02:05:10;;;;;;;1.85;0.98;;;;;;;8.70;75.60;98565.94;6216507;23;20001;-75
2021/01/30 02:07:40;;;;;;;2.40;1.20;;;;;;;8.66;75.75;98545.03;6218186;23;20035;-74
2021/01/30 02:10:12;;;;;;;2.15;1.17;;;;;;;8.68;76.18;98542.81;6213791;23;20008;-76
2021/01/30 02:12:39;;;;;;;4.40;1.42;;;;;;;8.58;76.52;98532.09;6209914;23;20007;-75
2021/01/30 02:15:07;;;;;;;3.80;1.30;;;;;;;8.64;76.90;98537.16;6213601;23;20070;-74
2021/01/30 02:17:42;;;;;;;2.53;1.10;;;;;;;8.65;76.18;98516.97;6213661;23;20062;-75
2021/01/30 02:20:36;;;;;;;8.05;1.58;;;;;;;8.64;76.88;98514.56;6213513;23;20001;-75
2021/01/30 02:23:13;;;;;;;3.72;1.55;;;;;;;8.62;76.94;98498.50;6202023;23;20004;-76
2021/01/30 02:26:16;;;;;;;3.17;1.17;;;;;;;8.65;76.88;98494.38;6213189;23;20013;-74
2021/01/30 02:29:03;;;;;;;2.35;1.02;;;;;;;8.64;76.88;98477.19;6209607;23;20020;-74
2021/01/30 02:32:06;;;;;;;3.08;0.95;;;;;;;8.68;76.02;98471.97;6212080;23;20431;-74
2021/01/30 02:34:44;;;;;;;8.90;1.13;;;;;;;8.65;76.15;98457.03;6218309;23;20000;-75
2021/01/30 02:37:23;;;;;;;2.67;0.50;;;;;;;8.63;76.55;98459.25;6218084;23;20336;-74
2021/01/30 02:39:54;;;;;;;3.15;0.70;;;;;;;8.61;76.63;98449.75;6220033;23;20035;-74
2021/01/30 02:42:25;;;;;;;1.95;0.50;;;;;;;8.63;76.80;98451.09;6221631;23;20001;-73
2021/01/30 02:44:58;;;;;;;3.75;1.08;;;;;;;8.65;76.37;98439.88;6189311;23;20008;-74
2021/01/30 02:47:27;;;;;;;4.68;0.88;;;;;;;8.63;75.64;98432.00;6190538;23;20138;-73
2021/01/30 02:50:06;;;;;;;5.20;0.57;;;;;;;8.63;76.35;98431.19;6219967;23;20091;-74
2021/01/30 02:52:33;;;;;;;2.08;1.15;;;;;;;8.58;75.93;98428.56;6222272;23;20005;-74
2021/01/30 02:55:00;;;;;;;1.58;0.82;;;;;;;8.55;75.80;98428.06;6195732;23;20079;-74
2021/01/30 02:57:27;;;;;;;4.13;0.82;;;;;;;8.54;76.02;98434.63;6217174;23;20651;-74
2021/01/30 02:59:56;;;;;;;7.68;0.95;;;;;;;8.54;76.99;98418.28;6193071;23;20005;-74
2021/01/30 03:02:25;;;;;;;3.92;1.15;;;;;;;8.49;76.77;98410.19;6219376;23;20000;-74
2021/01/30 03:04:56;;;;;;;2.15;0.93;;;;;;;8.50;76.71;98395.47;6218747;23;20084;-75
2021/01/30 03:07:37;;;;;;;5.38;1.15;;;;;;;8.62;76.00;98403.16;6192445;23;20059;-75
2021/01/30 03:10:15;;;;;;;4.43;0.88;;;;;;;8.64;76.31;98395.47;6220876;23;20091;-74
2021/01/30 03:12:53;;;;;;;5.93;1.17;;;;;;;8.60;76.63;98374.56;6222425;23;20004;-74
2021/01/30 03:15:29;;;;;;;1.75;0.60;;;;;;;8.62;76.18;98384.06;6194431;23;20096;-73
2021/01/30 03:17:58;;;;;;;1.92;0.88;;;;;;;8.68;76.05;98376.59;6222339;23;20000;-73
2021/01/30 03:20:26;;;;;;;3.50;0.82;;;;;;;8.68;76.29;98373.88;6221487;23;20202;-73
2021/01/30 03:22:53;;;;;;;4.10;0.80;;;;;;;8.63;76.70;98376.69;6221163;23;20012;-74
2021/01/30 03:25:22;;;;;;;3.13;0.65;;;;;;;8.61;76.95;98368.03;6222384;23;20001;-73
2021/01/30 03:27:48;;;;;;;8.63;1.65;;;;;;;8.60;76.59;98360.97;6194072;23;19996;-73
2021/01/30 03:30:15;;;;;;;1.63;0.85;;;;;;;8.63;76.69;98360.34;6214762;23;20025;-73
2021/01/30 03:32:43;;;;;;;9.45;1.52;;;;;;;8.62;76.33;98347.84;6219241;23;20411;-73
2021/01/30 03:35:09;;;;;;;3.20;0.88;;;;;;;8.60;76.41;98347.34;6218944;23;20023;-71
2021/01/30 03:37:36;;;;;;;2.47;0.82;;;;;;;8.61;76.62;98336.13;6164127;23;20008;-72
2021/01/30 03:40:02;;;;;;;6.72;0.95;;;;;;;8.59;76.20;98332.91;6220787;23;20047;-73
2021/01/30 03:42:28;;;;;;;7.15;1.23;;;;;;;8.62;76.54;98328.78;6197317;23;20008;-74
2021/01/30 03:44:53;;;;;;;8.93;0.60;;;;;;;8.57;76.64;98316.06;6195966;23;20079;-75
2021/01/30 03:47:19;;;;;;;2.63;0.45;;;;;;;8.54;76.16;98313.94;6187496;23;20004;-73
2021/01/30 03:49:44;;;;;;;6.80;1.13;;;;;;;8.53;75.61;98307.69;6170777;23;20020;-73
2021/01/30 03:52:10;;;;;;;3.65;1.05;;;;;;;8.43;76.05;98291.53;6166737;23;20435;-75
2021/01/30 03:54:35;;;;;;;2.65;0.68;;;;;;;8.47;77.20;98284.41;6223002;23;20015;-75
2021/01/30 03:57:01;;;;;;;3.83;1.05;;;;;;;8.50;76.07;98286.50;6223295;23;20054;-75
2021/01/30 03:59:26;;;;;;;1.60;0.68;;;;;;;8.54;76.70;98287.53;6172443;23;20028;-75
2021/01/30 04:01:52;;;;;;;3.88;1.33;;;;;;;8.54;75.97;98282.06;6223945;23;20084;-75
2021/01/30 04:04:18;;;;;;;2.13;0.70;;;;;;;8.43;76.08;98269.75;6223504;23;20005;-77
2021/01/30 04:06:48;;;;;;;6.75;1.33;;;;;;;8.41;76.87;98255.63;6221753;23;20149;-76
2021/01/30 04:09:15;;;;;;;5.78;0.70;;;;;;;8.39;76.37;98266.81;6219650;23;20019;-77
2021/01/30 04:11:41;;;;;;;2.25;0.52;;;;;;;8.29;76.90;98252.59;6195187;23;20013;-76
2021/01/30 04:14:07;;;;;;;8.88;1.27;;;;;;;8.48;77.20;98269.66;6196675;23;20008;-76
2021/01/30 04:16:35;;;;;;;4.05;1.17;;;;;;;8.47;76.44;98270.78;6224623;23;20000;-74
2021/01/30 04:19:01;;;;;;;2.03;0.77;;;;;;;8.37;76.48;98266.31;6195251;23;20035;-74
2021/01/30 04:21:27;;;;;;;5.75;0.90;;;;;;;8.39;76.07;98268.72;6193704;23;20001;-73
2021/01/30 04:23:52;;;;;;;3.20;0.65;;;;;;;8.30;76.91;98251.50;6213295;23;20008;-74
2021/01/30 04:26:19;;;;;;;2.38;0.90;;;;;;;8.26;77.00;98248.56;6223139;23;20035;-75
2021/01/30 04:28:48;;;;;;;4.40;1.02;;;;;;;8.34;77.28;98266.13;6214798;23;20008;-74
2021/01/30 04:31:15;;;;;;;5.63;0.90;;;;;;;8.33;77.38;98253.63;6221915;23;20012;-73
2021/01/30 04:33:41;;;;;;;3.17;0.90;;;;;;;8.32;77.10;98252.00;6216714;23;20007;-74
2021/01/30 04:36:06;;;;;;;1.50;0.57;;;;;;;8.28;77.15;98237.38;6215643;23;20063;-74
2021/01/30 04:38:32;;;;;;;2.33;0.70;;;;;;;8.30;76.81;98238.69;6194700;23;20343;-73
2021/01/30 04:41:45;;;;;;;1.35;0.55;;;;;;;8.37;76.68;98241.00;6193619;23;20087;-73
2021/01/30 04:44:36;;;;;;;5.40;1.00;;;;;;;8.30;76.82;98227.00;6187260;23;20009;-71
2021/01/30 04:47:06;;;;;;;4.55;0.68;;;;;;;8.26;77.68;98220.53;6221776;23;20078;-73
2021/01/30 04:49:34;;;;;;;0.85;0.68;;;;;;;8.27;77.94;98212.06;6221841;23;20004;-73
2021/01/30 04:52:09;;;;;;;6.82;0.90;;;;;;;8.29;77.82;98217.22;6222903;23;20009;-73
2021/01/30 04:54:53;;;;;;;7.57;1.05;;;;;;;8.23;78.13;98213.78;6223022;23;20257;-73
2021/01/30 04:57:37;;;;;;;3.45;0.70;;;;;;;8.19;77.56;98199.97;6219522;23;20004;-71
2021/01/30 05:00:32;;;;;;;2.58;0.93;;;;;;;8.22;78.12;98204.03;6222731;23;20068;-73
2021/01/30 05:03:33;;;;;;;2.38;0.40;;;;;;;8.21;77.95;98208.63;6223593;23;20004;-72
2021/01/30 05:06:21;;;;;;;;;;;;;;;;;;;;;
2021/01/30 05:09:01;;;;;;;5.78;0.50;;;;;;;8.20;77.71;98201.56;6222861;23;20032;-73
2021/01/30 05:11:30;;;;;;;7.30;0.77;;;;;;;8.21;77.72;98197.75;6219919;23;20796;-73
2021/01/30 05:14:02;;;;;;;0.85;0.63;;;;;;;8.24;77.67;98195.53;6222101;23;20005;-73
2021/01/30 05:16:33;;;;;;;1.60;0.60;;;;;;;8.19;77.98;98185.53;6223536;23;20005;-74
2021/01/30 05:19:04;;;;;;;2.15;0.68;;;;;;;8.19;78.08;98178.19;6219478;23;20007;-73
2021/01/30 05:21:47;;;;;;;0.80;0.40;;;;;;;8.18;77.42;98175.78;6222924;23;20072;-72
2021/01/30 05:24:14;;;;;;;1.67;0.30;;;;;;;8.14;78.35;98159.25;6221854;23;20027;-73
2021/01/30 05:26:40;;;;;;;1.40;0.40;;;;;;;8.26;77.44;98163.34;6222120;23;20005;-73
2021/01/30 05:29:21;;;;;;;2.38;0.47;;;;;;;8.27;78.39;98162.25;6217918;23;20018;-73
2021/01/30 05:32:06;;;;;;;9.77;0.93;;;;;;;8.21;77.51;98143.28;6221590;23;20422;-75
2021/01/30 05:34:57;;;;;;;0.63;0.30;;;;;;;8.14;77.79;98139.38;6221615;23;20004;-74
2021/01/30 05:37:33;;;;;;;1.63;0.57;;;;;;;8.21;77.88;98154.19;6220713;23;20019;-74
2021/01/30 05:40:04;;;;;;;0.43;0.20;;;;;;;8.23;77.82;98145.72;6219568;23;20009;-73
2021/01/30 05:42:44;;;;;;;0.60;0.30;;;;;;;8.23;77.03;98134.03;6226343;23;20015;-73
2021/01/30 05:45:39;;;;;;;0.55;0.30;;;;;;;8.21;77.84;98131.59;6220811;23;20012;-73
2021/01/30 05:48:10;;;;;;;0.45;0.20;;;;;;;8.19;77.44;98133.81;6225785;23;20011;-73
2021/01/30 05:50:50;;;;;;;2.47;0.52;;;;;;;8.25;76.74;98132.63;6219417;23;20000;-74
2021/01/30 05:53:21;;;;;;;0.68;0.30;;;;;;;8.29;77.76;98130.06;6218425;23;20009;-74
2021/01/30 05:55:47;;;;;;;0.93;0.30;;;;;;;8.15;77.24;98117.31;6198712;23;20086;-75
2021/01/30 05:58:15;;;;;;;2.03;0.38;;;;;;;8.18;76.49;98116.69;6192012;23;20424;-74
2021/01/30 06:00:42;;;;;;;8.77;0.75;;;;;;;8.17;77.35;98133.31;6223273;23;20009;-75
2021/01/30 06:03:14;;;;;;;1.88;0.85;;;;;;;8.11;77.92;98129.91;6225826;23;20047;-75
2021/01/30 06:06:07;;;;;;;2.22;0.50;;;;;;;8.14;77.53;98125.78;6224075;23;20016;-75
2021/01/30 06:08:32;;;;;;;2.40;0.45;;;;;;;8.06;77.48;98115.59;6225971;23;20005;-75
2021/01/30 06:11:13;;;;;;;0.80;0.70;;;;;;;8.10;77.08;98125.56;6194762;23;20317;-76
2021/01/30 06:13:54;;;;;;;0.45;0.30;;;;;;;8.02;77.48;98126.31;6197287;23;20500;-76
2021/01/30 06:16:41;;;;;;;0.82;0.65;;;;;;;8.12;77.96;98133.44;6193639;23;20366;-75
2021/01/30 06:19:15;;;;;;;0.38;0.30;;;;;;;8.13;77.81;98119.53;6225258;23;20001;-75
2021/01/30 06:21:42;;;;;;;0.77;0.77;;;;;;;8.07;77.82;98106.34;6221988;23;20011;-76
2021/01/30 06:24:27;;;;;;;0.30;0.25;;;;;;;8.17;77.65;98125.97;6174023;23;20070;-75
2021/01/30 06:27:05;;;;;;;0.20;0.15;;;;;;;8.14;76.88;98126.56;6222520;23;20001;-76
2021/01/30 06:29:48;;;;;;;1.33;0.20;;;;;;;8.21;77.67;98110.63;6214841;23;20021;-75
2021/01/30 06:32:19;;;;;;;1.38;0.47;;;;;;;8.24;76.83;98103.78;6212902;23;20012;-75
2021/01/30 06:34:58;;;;;;;1.05;0.40;;;;;;;8.21;76.83;98094.28;6195839;23;20032;-76
2021/01/30 06:37:52;;;;;;;0.43;0.25;;;;;;;8.24;77.53;98102.97;6191083;23;20000;-76
2021/01/30 06:40:20;;;;;;;0.52;0.38;;;;;;;8.21;77.94;98099.72;6191721;23;20080;-74
2021/01/30 06:42:48;;;;;;;1.38;0.50;;;;;;;8.13;77.13;98081.44;6216775;23;20008;-74
2021/01/30 06:45:26;;;;;;;1.48;0.57;;;;;;;8.19;77.38;98095.69;6194881;23;20081;-75
2021/01/30 06:47:53;;;;;;;1.35;0.65;;;;;;;8.15;77.33;98100.97;6191063;23;20056;-76
2021/01/30 06:50:35;;;;;;;0.43;0.17;;;;;;;8.19;78.11;98093.81;6193704;23;20005;-75
2021/01/30 06:53:18;;;;;;;4.10;0.73;;;;;;;8.33;77.97;98090.22;6210765;23;20767;-75
2021/01/30 06:55:43;;;;;;;1.95;0.32;;;;;;;8.25;76.90;98089.06;6192864;23;20011;-73
2021/01/30 06:58:19;;;;;;;0.45;0.20;;;;;;;8.27;77.42;98086.00;6189926;23;20069;-73
2021/01/30 07:00:45;;;;;;;6.15;0.22;;;;;;;8.19;76.81;98068.47;6193024;23;20005;-74
2021/01/30 07:03:20;;;;;;;0.57;0.20;;;;;;;8.29;77.09;98078.34;6192010;23;20091;-76
2021/01/30 07:06:00;;;;;;;0.73;0.10;;;;;;;8.32;76.69;98077.72;6195491;23;20008;-73
2021/01/30 07:08:58;;;;;;;1.05;0.30;;;;;;;8.31;76.71;98067.94;6210906;23;20005;-74
2021/01/30 07:11:35;;;;;;;1.40;0.30;;;;;;;8.30;77.09;98063.63;6144197;23;20009;-75
2021/01/30 07:14:10;;;;;;;2.88;0.20;;;;;;;8.36;76.81;98073.25;6212259;23;20008;-75
2021/01/30 07:16:46;;;;;;;0.98;0.32;;;;;;;8.31;76.41;98065.19;6191087;23;20064;-75
2021/01/30 07:19:45;;;;;;;1.92;0.60;;;;;;;8.32;77.70;98066.81;6192727;23;20078;-74
2021/01/30 07:22:22;;;;;;;0.50;0.40;;;;;;;8.25;76.97;98050.94;6216886;23;20480;-75
2021/01/30 07:25:05;;;;;;;2.90;0.50;;;;;;;8.21;77.17;98039.84;6193495;23;20001;-75
2021/01/30 07:27:47;;;;;;;0.80;0.60;;;;;;;8.11;77.21;98034.63;6192440;23;20001;-76
2021/01/30 07:30:21;;;;;;;2.05;0.50;;;;;;;8.16;77.28;98039.97;6193952;23;20021;-76
2021/01/30 07:32:55;;;;;;;0.55;0.55;;;;;;;8.07;77.74;98039.09;6163827;23;20036;-76
2021/01/30 07:35:22;;;;;;;2.83;0.82;;;;;;;8.07;77.29;98043.72;6168822;23;20005;-76
2021/01/30 07:37:58;;;;;;;1.77;0.82;;;;;;;8.04;77.14;98034.25;6165887;23;20024;-75
2021/01/30 07:40:57;;;;;;;1.05;0.40;;;;;;;8.12;77.73;98044.41;6164896;23;20011;-73
2021/01/30 07:43:39;;;;;;;0.82;0.40;;;;;;;8.13;77.86;98043.31;6191728;23;20001;-74
2021/01/30 07:46:04;;;;;;;0.85;0.75;;;;;;;8.06;77.37;98040.22;6191294;23;20048;-72
2021/01/30 07:48:51;;;;;;;1.75;0.45;;;;;;;8.08;78.39;98029.00;6188664;23;20032;-75
2021/01/30 07:51:47;;;;;;;1.15;0.47;;;;;;;8.08;77.60;98034.47;6186925;23;20001;-73
2021/01/30 07:54:15;;;;;;;1.10;0.20;;;;;;;8.04;77.66;98050.59;6195486;23;20057;-75
2021/01/30 07:56:56;;;;;;;1.70;0.70;;;;;;;7.97;77.54;98039.31;6161477;23;20028;-75
2021/01/30 07:59:28;;;;;;;1.48;0.70;;;;;;;8.04;78.22;98036.97;6195358;23;20005;-73
2021/01/30 08:01:59;;;;;;;2.60;0.73;;;;;;;8.04;77.70;98028.81;6192942;23;20009;-75
2021/01/30 08:04:43;;;;;;;1.17;0.30;;;;;;;8.09;78.63;98036.88;6192827;23;20005;-75
2021/01/30 08:07:23;;;;;;;1.13;0.60;;;;;;;8.08;78.28;98035.25;6189444;23;20013;-74
2021/01/30 08:10:06;;;;;;;0.70;0.40;;;;;;;8.14;77.59;98036.75;6185048;23;20001;-74
2021/01/30 08:12:54;;;;;;;0.77;0.60;;;;;;;8.11;78.48;98040.06;6187696;23;20000;-73
2021/01/30 08:15:45;;;;;;;1.35;0.30;;;;;;;8.14;78.54;98042.19;6189880;23;20001;-74
2021/01/30 08:18:23;;;;;;;3.40;0.30;;;;;;;8.12;78.01;98046.31;6192865;23;20008;-74
2021/01/30 08:21:08;;;;;;;1.55;0.55;;;;;;;8.14;77.99;98044.91;6162459;23;20008;-76
2021/01/30 08:24:02;;;;;;;3.78;0.20;;;;;;;8.09;77.91;98038.78;6164412;23;20009;-75
2021/01/30 08:26:38;;;;;;;1.58;0.45;;;;;;;8.06;78.26;98042.94;6130678;23;20027;-74
2021/01/30 08:29:27;;;;;;;0.63;0.30;;;;;;;8.08;77.61;98048.88;6161582;23;20055;-72
2021/01/30 08:31:57;;;;;;;1.10;0.35;;;;;;;8.07;78.76;98049.16;6164445;23;20087;-72
2021/01/30 08:34:23;;;;;;;0.32;0.32;;;;;;;8.06;78.39;98042.94;6184968;23;20005;-73
2021/01/30 08:36:54;;;;;;;2.05;0.30;;;;;;;8.11;78.45;98040.06;6184645;23;20012;-74
2021/01/30 08:39:33;;;;;;;2.95;0.30;;;;;;;8.14;78.63;98039.47;6162391;23;20478;-70
2021/01/30 08:42:04;;;;;;;3.30;0.40;;;;;;;8.17;78.39;98049.72;6189679;23;19997;-73
2021/01/30 08:44:48;;;;;;;0.25;0.10;;;;;;;8.19;77.73;98044.78;6163578;23;20408;-73
2021/01/30 08:47:27;;;;;;;1.20;0.30;;;;;;;8.21;78.71;98049.94;6183782;23;20001;-74
2021/01/30 08:50:32;;;;;;;0.45;0.30;;;;;;;8.25;78.31;98055.56;6189073;23;20011;-74
2021/01/30 08:53:28;;;;;;;0.28;0.20;;;;;;;8.20;78.61;98057.28;6187324;23;20005;-75
2021/01/30 08:55:57;;;;;;;2.08;0.20;;;;;;;8.21;78.30;98063.53;6184702;23;20015;-75
2021/01/30 08:58:32;;;;;;;0.10;0.05;;;;;;;8.23;77.90;98063.25;6159052;23;20013;-75
2021/01/30 09:01:06;;;;;;;0.17;0.17;;;;;;;8.23;77.66;98057.78;6186060;23;20553;-75
2021/01/30 09:04:01;;;;;;;1.17;0.65;;;;;;;8.26;78.29;98052.53;6191824;23;20001;-75
2021/01/30 09:06:39;;;;;;;1.65;0.10;;;;;;;8.26;78.70;98054.44;6188201;23;20005;-75
2021/01/30 09:09:20;;;;;;;0.20;0.20;;;;;;;8.25;78.61;98044.66;6184652;23;20435;-74
2021/01/30 09:11:59;;;;;;;0.47;0.20;;;;;;;8.16;78.44;98048.13;6193608;23;20001;-74
2021/01/30 09:14:27;;;;;;;0.65;0.08;;;;;;;8.21;78.27;98056.16;6157938;23;20043;-75
2021/01/30 09:16:56;;;;;;;0.20;0.13;;;;;;;8.23;78.00;98057.78;6191612;23;20012;-76
2021/01/30 09:19:30;;;;;;;0.60;0.20;;;;;;;8.15;77.88;98054.69;6184164;23;20000;-75
2021/01/30 09:22:07;;;;;;;0.77;0.20;;;;;;;8.26;78.67;98068.84;6167481;23;20126;-75
2021/01/30 09:24:48;;;;;;;4.53;0.30;;;;;;;8.23;78.79;98060.50;6163711;23;20051;-75
2021/01/30 09:27:23;;;;;;;0.35;0.30;;;;;;;8.25;77.83;98061.00;6190372;23;20492;-76
2021/01/30 09:29:51;;;;;;;0.87;0.30;;;;;;;8.30;77.81;98063.63;6171408;23;20436;-76
2021/01/30 09:32:33;;;;;;;1.15;0.40;;;;;;;8.29;77.81;98046.44;6217272;23;20234;-75
2021/01/30 09:35:06;;;;;;;0.40;0.40;;;;;;;8.37;78.46;98058.53;6204897;23;20020;-74
2021/01/30 09:37:43;;;;;;;1.58;0.38;;;;;;;8.34;78.09;98042.81;6191224;23;20102;-73
2021/01/30 09:40:19;;;;;;;1.23;0.20;;;;;;;8.37;78.48;98042.22;6183223;23;20012;-73
2021/01/30 09:43:13;;;;;;;0.40;0.20;;;;;;;8.42;77.84;98038.56;6190927;23;20004;-73
2021/01/30 09:45:48;;;;;;;0.22;0.20;;;;;;;8.44;77.81;98047.19;6187907;23;20008;-74
2021/01/30 09:48:14;;;;;;;0.45;0.30;;;;;;;8.43;78.81;98046.41;6190266;23;20429;-75
2021/01/30 09:50:54;;;;;;;0.30;0.20;;;;;;;8.36;77.95;98029.69;6215433;23;20001;-73
2021/01/30 09:53:50;;;;;;;0.15;0.10;;;;;;;8.36;78.44;98046.03;6195514;23;20001;-74
2021/01/30 09:56:18;;;;;;;0.30;0.30;;;;;;;8.19;78.21;98023.03;6176759;23;20465;-72
2021/01/30 09:58:50;;;;;;;2.47;0.25;;;;;;;8.27;78.67;98056.06;6191541;23;20072;-73
2021/01/30 10:01:37;;;;;;;0.20;0.20;;;;;;;8.28;78.60;98055.75;6190177;23;20001;-74
2021/01/30 10:04:17;;;;;;;1.67;0.20;;;;;;;8.26;79.07;98046.28;6213306;23;20028;-72
2021/01/30 10:06:44;;;;;;;1.50;0.47;;;;;;;8.29;78.97;98056.56;6180105;23;20005;-73
2021/01/30 10:09:24;;;;;;;0.22;0.17;;;;;;;8.28;78.86;98057.66;6185667;23;20367;-73
2021/01/30 10:11:56;;;;;;;0.43;0.35;;;;;;;8.25;78.85;98045.50;6182214;23;20079;-73
2021/01/30 10:14:32;;;;;;;0.38;0.10;;;;;;;8.20;78.72;98042.88;6206820;23;20005;-72
2021/01/30 10:17:18;;;;;;;0.28;0.20;;;;;;;8.26;78.67;98051.72;6212088;23;20024;-73
2021/01/30 10:19:44;;;;;;;0.25;0.25;;;;;;;8.24;80.04;98048.53;6206885;23;20004;-73
2021/01/30 10:22:43;;;;;;;0.35;0.13;;;;;;;8.39;79.59;98050.84;6186500;23;20348;-74
2021/01/30 10:25:17;;;;;;;1.65;0.10;;;;;;;8.39;79.72;98053.59;6196243;23;20482;-73
2021/01/30 10:27:49;;;;;;;0.47;0.35;;;;;;;8.32;79.71;98045.03;6190092;23;20028;-73
2021/01/30 10:30:19;;;;;;;0.28;0.20;;;;;;;8.32;78.66;98039.59;6188425;23;20096;-73
2021/01/30 10:32:52;;;;;;;0.75;0.20;;;;;;;8.30;78.89;98020.03;6190661;23;20073;-74
2021/01/30 10:35:30;;;;;;;0.95;0.50;;;;;;;8.50;79.26;98037.84;6189574;23;20001;-74
2021/01/30 10:38:10;;;;;;;0.50;0.17;;;;;;;8.59;78.41;98040.63;6192242;23;20079;-74
2021/01/30 10:40:49;;;;;;;3.13;0.73;;;;;;;8.60;79.23;98044.94;6184276;23;20005;-72
2021/01/30 10:43:24;;;;;;;0.20;0.20;;;;;;;8.66;78.22;98057.31;6191617;23;20427;-75
2021/01/30 10:45:55;;;;;;;0.43;0.20;;;;;;;8.69;78.08;98052.06;6190999;23;20008;-73
2021/01/30 10:48:23;;;;;;;0.20;0.17;;;;;;;8.64;77.92;98030.38;6207586;23;20006;-75
2021/01/30 10:50:50;;;;;;;0.30;0.20;;;;;;;8.62;78.47;98026.38;6188177;23;20011;-74
2021/01/30 10:53:32;;;;;;;0.30;0.20;;;;;;;8.72;78.46;98042.47;6185654;23;20001;-74
2021/01/30 10:55:58;;;;;;;0.10;0.10;;;;;;;8.71;77.79;98029.94;6210739;23;20543;-73
2021/01/30 10:58:24;;;;;;;0.63;0.20;;;;;;;8.77;77.54;98039.59;6181289;23;20017;-73
2021/01/30 11:01:29;;;;;;;0.30;0.15;;;;;;;8.77;77.27;98036.88;6188467;23;20043;-72
2021/01/30 11:04:00;;;;;;;0.50;0.30;;;;;;;8.70;77.33;98031.06;6205700;23;20328;-73
2021/01/30 11:06:33;;;;;;;0.20;0.17;;;;;;;8.63;77.66;98017.06;6185238;23;20088;-74
2021/01/30 11:09:10;;;;;;;0.52;0.13;;;;;;;8.66;77.77;98033.59;6183133;23;20087;-74
2021/01/30 11:11:37;;;;;;;0.60;0.20;;;;;;;8.60;77.20;98034.84;6186355;23;20036;-74
2021/01/30 11:14:17;;;;;;;0.10;0.00;;;;;;;8.52;76.92;98033.66;6209126;23;20001;-73
2021/01/30 11:16:46;;;;;;;0.30;0.10;;;;;;;8.43;77.78;98013.72;6184969;23;20001;-72
2021/01/30 11:19:23;;;;;;;3.13;0.40;;;;;;;8.56;77.54;98034.66;6186871;23;20005;-75
2021/01/30 11:22:17;;;;;;;0.30;0.17;;;;;;;8.52;78.35;98017.31;6182218;23;20005;-75
2021/01/30 11:24:49;;;;;;;0.10;0.10;;;;;;;8.59;78.00;98027.78;6184259;23;20000;-74
2021/01/30 11:27:35;;;;;;;0.43;0.10;;;;;;;8.61;78.04;98025.56;6182305;23;20061;-75
2021/01/30 11:30:29;;;;;;;0.20;0.10;;;;;;;8.65;77.84;98025.75;6197115;23;20024;-73
2021/01/30 11:33:09;;;;;;;0.10;0.10;;;;;;;8.71;78.40;98014.38;6185803;23;20020;-73
2021/01/30 11:35:37;;;;;;;1.08;0.20;;;;;;;8.78;77.86;98019.41;6219779;23;20023;-75
2021/01/30 11:38:17;;;;;;;;;;;;;;;;;;;;;
2021/01/30 11:40:43;;;;;;;0.17;0.10;;;;;;;9.34;77.40;98018.97;6220698;23;20032;-76
2021/01/30 11:43:10;;;;;;;0.10;0.10;;;;;;;9.49;76.39;98024.00;6166263;23;20020;-77
2021/01/30 11:45:48;;;;;;;1.00;0.10;;;;;;;9.43;75.94;98012.44;6218535;23;20425;-76
2021/01/30 11:48:16;;;;;;;0.45;0.28;;;;;;;9.29;75.25;98028.13;6201587;23;20016;-79
2021/01/30 11:50:42;;;;;;;0.20;0.17;;;;;;;9.24;76.26;98026.34;6197898;23;20001;-78
2021/01/30 11:53:19;;;;;;;0.28;0.13;;;;;;;9.19;76.42;98033.84;6174637;23;20004;-78
2021/01/30 11:55:55;;;;;;;0.20;0.20;;;;;;;8.91;76.57;97999.41;6219691;23;20004;-78
2021/01/30 11:58:21;;;;;;;0.13;0.13;;;;;;;8.88;76.51;98008.22;6200064;23;20023;-79
2021/01/30 12:00:55;;;;;;;1.33;0.20;;;;;;;8.82;76.32;98011.38;6228314;23;20001;-81
2021/01/30 12:03:26;;;;;;;0.20;0.20;;;;;;;8.85;77.23;98022.50;6200852;23;20001;-82
2021/01/30 12:05:53;;;;;;;0.10;0.10;;;;;;;8.73;77.07;98014.06;6220714;23;20531;-80
2021/01/30 12:08:22;;;;;;;0.50;0.20;;;;;;;8.74;77.67;98010.25;6196099;23;20011;-80
2021/01/30 12:10:48;;;;;;;0.20;0.13;;;;;;;8.72;76.81;98009.75;6222797;23;20028;-79
2021/01/30 12:13:16;;;;;;;0.10;0.10;;;;;;;8.70;77.60;98014.69;6226873;23;20375;-79
2021/01/30 12:15:42;;;;;;;0.65;0.10;;;;;;;8.68;77.33;98015.00;6205449;23;20004;-79
2021/01/30 12:18:11;;;;;;;0.13;0.10;;;;;;;8.76;76.93;98021.66;6205038;23;20019;-81